createdAt,value
2019-03-24T00:00:48.252Z,72.63
2019-03-24T00:03:17.669Z,72.04
2019-03-24T00:05:47.193Z,72.75
2019-03-24T00:08:16.650Z,72.21
2019-03-24T00:10:45.991Z,73.61
2019-03-24T00:13:15.423Z,73.29
2019-03-24T00:15:44.970Z,74.02
2019-03-24T00:18:15.275Z,74.00
2019-03-24T00:20:44.736Z,74.40
2019-03-24T00:23:14.166Z,74.16
2019-03-24T00:25:43.591Z,74.15
2019-03-24T00:28:12.928Z,74.23
2019-03-24T00:30:42.362Z,74.07
2019-03-24T00:33:11.883Z,74.04
2019-03-24T00:35:41.310Z,74.06
2019-03-24T00:38:10.798Z,74.88
2019-03-24T00:40:40.268Z,75.94
2019-03-24T00:43:09.655Z,74.88
2019-03-24T00:45:39.054Z,74.05
2019-03-24T00:48:08.323Z,74.14
2019-03-24T00:50:37.886Z,74.28
2019-03-24T00:53:07.515Z,75.09
2019-03-24T00:55:37.120Z,76.02
2019-03-24T00:58:06.660Z,75.53
2019-03-24T01:01:01.204Z,75.80
2019-03-24T01:03:30.707Z,75.27
2019-03-24T01:06:01.870Z,75.85
2019-03-24T01:08:31.295Z,74.90
2019-03-24T01:11:00.777Z,75.05
2019-03-24T01:13:30.164Z,75.39
2019-03-24T01:15:59.656Z,76.92
2019-03-24T01:18:29.086Z,77.21
2019-03-24T01:20:58.513Z,76.12
2019-03-24T01:23:27.965Z,75.11
2019-03-24T01:25:57.568Z,74.86
2019-03-24T01:28:26.961Z,75.15
2019-03-24T01:30:56.446Z,75.96
2019-03-24T01:33:25.919Z,75.69
2019-03-24T01:35:55.367Z,75.50
2019-03-24T01:38:24.903Z,75.64
2019-03-24T01:40:54.398Z,77.58
2019-03-24T01:43:23.821Z,77.05
2019-03-24T01:45:58.570Z,75.06
2019-03-24T01:48:24.470Z,74.28
2019-03-24T01:50:53.929Z,75.07
2019-03-24T01:53:23.308Z,75.52
2019-03-24T01:55:52.751Z,76.07
2019-03-24T01:58:22.294Z,76.15
2019-03-24T02:00:52.024Z,76.88
2019-03-24T02:03:21.531Z,76.94
2019-03-24T02:05:51.170Z,77.55
2019-03-24T02:08:20.663Z,77.58
2019-03-24T02:10:50.078Z,78.01
2019-03-24T02:13:19.491Z,78.50
2019-03-24T02:15:48.934Z,78.54
2019-03-24T02:18:18.236Z,79.03
2019-03-24T02:20:47.777Z,79.99
2019-03-24T02:23:17.194Z,79.83
2019-03-24T02:25:46.621Z,79.97
2019-03-24T02:28:17.470Z,79.96
2019-03-24T02:30:46.949Z,80.59
2019-03-24T02:33:16.353Z,80.89
2019-03-24T02:35:45.877Z,81.18
2019-03-24T02:38:15.498Z,81.66
2019-03-24T02:40:45.044Z,81.66
2019-03-24T02:43:14.386Z,81.77
2019-03-24T02:45:43.911Z,81.77
2019-03-24T02:48:13.509Z,81.61
2019-03-24T02:50:43.014Z,81.36
2019-03-24T02:53:12.480Z,81.53
2019-03-24T02:55:41.999Z,81.27
2019-03-24T02:58:11.332Z,80.79
2019-03-24T03:00:40.896Z,80.38
2019-03-24T03:03:10.443Z,79.60
2019-03-24T03:05:39.832Z,79.60
2019-03-24T03:08:09.472Z,79.46
2019-03-24T03:10:38.970Z,78.78
2019-03-24T03:13:08.521Z,78.77
2019-03-24T03:15:38.083Z,78.59
2019-03-24T03:18:07.686Z,79.34
2019-03-24T03:20:37.267Z,80.58
2019-03-24T03:23:06.790Z,80.62
2019-03-24T03:25:36.293Z,80.38
2019-03-24T03:28:05.914Z,80.35
2019-03-24T03:30:35.414Z,80.30
2019-03-24T03:33:04.962Z,81.01
2019-03-24T03:35:34.303Z,81.06
2019-03-24T03:38:03.805Z,79.63
2019-03-24T03:40:33.318Z,78.15
2019-03-24T03:43:02.927Z,78.72
2019-03-24T03:45:32.418Z,79.04
2019-03-24T03:48:01.798Z,79.24
2019-03-24T03:50:31.097Z,79.49
2019-03-24T03:53:00.567Z,79.89
2019-03-24T03:55:30.066Z,79.82
2019-03-24T03:57:59.394Z,80.56
2019-03-24T04:00:36.031Z,80.56
2019-03-24T04:03:07.073Z,79.83
2019-03-24T04:05:36.711Z,80.22
2019-03-24T04:08:06.252Z,80.63
2019-03-24T04:10:35.751Z,81.10
2019-03-24T04:13:05.517Z,81.28
2019-03-24T04:15:35.024Z,81.51
2019-03-24T04:18:04.630Z,81.73
2019-03-24T04:20:34.111Z,82.00
2019-03-24T04:23:03.592Z,82.24
2019-03-24T04:25:33.132Z,81.96
2019-03-24T04:28:02.567Z,80.52
2019-03-24T04:30:32.065Z,80.44
2019-03-24T04:33:01.466Z,80.52
2019-03-24T04:35:30.775Z,80.83
2019-03-24T04:38:00.291Z,80.89
2019-03-24T04:40:29.704Z,81.28
2019-03-24T04:42:59.247Z,81.17
2019-03-24T04:45:28.713Z,81.41
2019-03-24T04:47:58.186Z,81.58
2019-03-24T04:50:27.570Z,81.45
2019-03-24T04:52:56.999Z,81.43
2019-03-24T04:55:26.426Z,80.70
2019-03-24T04:57:55.853Z,79.84
2019-03-24T05:00:35.980Z,80.64
2019-03-24T05:03:05.478Z,81.37
2019-03-24T05:05:35.353Z,81.77
2019-03-24T05:08:05.398Z,82.09
2019-03-24T05:10:35.222Z,81.77
2019-03-24T05:13:05.167Z,82.24
2019-03-24T05:15:34.587Z,82.28
2019-03-24T05:18:04.194Z,81.90
2019-03-24T05:20:33.786Z,81.23
2019-03-24T05:23:03.245Z,80.54
2019-03-24T05:25:32.685Z,79.99
2019-03-24T05:28:02.097Z,80.19
2019-03-24T05:30:31.532Z,80.21
2019-03-24T05:33:00.930Z,79.91
2019-03-24T05:35:30.364Z,78.82
2019-03-24T05:37:59.845Z,79.07
2019-03-24T05:40:29.372Z,79.08
2019-03-24T05:42:58.754Z,78.48
2019-03-24T05:45:28.168Z,79.22
2019-03-24T05:47:57.568Z,79.11
2019-03-24T05:50:27.199Z,78.89
2019-03-24T05:52:56.626Z,78.81
2019-03-24T05:55:26.125Z,77.00
2019-03-24T05:57:55.646Z,76.60
2019-03-24T06:00:24.972Z,76.69
2019-03-24T06:02:54.342Z,77.60
2019-03-24T06:05:23.810Z,77.10
2019-03-24T06:07:53.301Z,77.18
2019-03-24T06:10:22.747Z,77.18
2019-03-24T06:12:52.218Z,77.83
2019-03-24T06:15:21.744Z,77.43
2019-03-24T06:17:51.026Z,76.33
2019-03-24T06:20:20.561Z,75.04
2019-03-24T06:22:49.996Z,74.09
2019-03-24T06:25:19.555Z,72.69
2019-03-24T06:27:48.979Z,72.37
2019-03-24T06:30:18.625Z,73.59
2019-03-24T06:32:48.067Z,72.75
2019-03-24T06:35:17.530Z,71.75
2019-03-24T06:37:46.943Z,71.69
2019-03-24T06:40:16.420Z,72.83
2019-03-24T06:42:45.833Z,73.15
2019-03-24T06:45:15.383Z,73.10
2019-03-24T06:47:44.903Z,73.12
2019-03-24T06:50:14.931Z,72.97
2019-03-24T06:52:44.427Z,73.21
2019-03-24T06:55:13.911Z,73.00
2019-03-24T06:57:44.288Z,71.92
2019-03-24T07:00:13.996Z,71.09
2019-03-24T07:02:43.537Z,71.44
2019-03-24T07:05:13.220Z,71.35
2019-03-24T07:07:42.642Z,71.67
2019-03-24T07:10:12.785Z,71.14
2019-03-24T07:12:42.417Z,71.31
2019-03-24T07:15:12.890Z,70.55
2019-03-24T07:17:42.321Z,71.19
2019-03-24T07:20:12.046Z,71.15
2019-03-24T07:22:41.637Z,70.53
2019-03-24T07:25:11.424Z,69.80
2019-03-24T07:27:40.867Z,70.17
2019-03-24T07:30:11.071Z,69.68
2019-03-24T07:32:40.473Z,69.32
2019-03-24T07:35:10.259Z,69.21
2019-03-24T07:37:39.795Z,69.42
2019-03-24T07:40:09.915Z,68.85
2019-03-24T07:42:39.453Z,68.45
2019-03-24T07:45:09.624Z,66.67
2019-03-24T07:47:39.160Z,66.50
2019-03-24T07:50:10.684Z,65.28
2019-03-24T07:52:40.292Z,65.11
2019-03-24T07:55:10.265Z,64.16
2019-03-24T07:57:39.708Z,63.13
2019-03-24T08:00:10.229Z,62.06
2019-03-24T08:02:50.866Z,61.77
2019-03-24T08:05:12.805Z,62.48
2019-03-24T08:07:42.304Z,62.85
2019-03-24T08:10:12.404Z,62.00
2019-03-24T08:12:42.003Z,61.38
2019-03-24T08:15:11.646Z,61.59
2019-03-24T08:17:40.990Z,60.50
2019-03-24T08:20:12.365Z,59.46
2019-03-24T08:22:42.214Z,59.36
2019-03-24T08:25:12.053Z,59.85
2019-03-24T08:27:41.519Z,59.17
2019-03-24T08:30:11.265Z,58.58
2019-03-24T08:32:40.691Z,58.24
2019-03-24T08:35:10.838Z,57.92
2019-03-24T08:37:40.360Z,56.78
2019-03-24T08:40:09.923Z,56.91
2019-03-24T08:42:39.483Z,57.65
2019-03-24T08:45:13.197Z,57.49
2019-03-24T08:47:42.605Z,55.38
2019-03-24T08:50:12.184Z,54.51
2019-03-24T08:52:41.618Z,55.00
2019-03-24T08:55:11.079Z,54.95
2019-03-24T08:57:40.660Z,54.90
2019-03-24T09:00:10.157Z,55.09
2019-03-24T09:02:39.582Z,55.73
2019-03-24T09:05:09.158Z,55.04
2019-03-24T09:07:38.809Z,55.07
2019-03-24T09:10:09.279Z,55.27
2019-03-24T09:12:38.710Z,54.70
2019-03-24T09:15:08.450Z,54.41
2019-03-24T09:17:38.061Z,55.14
2019-03-24T09:20:08.088Z,55.46
2019-03-24T09:22:37.532Z,54.05
2019-03-24T09:25:07.572Z,52.66
2019-03-24T09:27:37.206Z,52.51
2019-03-24T09:30:09.109Z,52.29
2019-03-24T09:32:38.690Z,51.25
2019-03-24T09:35:08.452Z,50.44
2019-03-24T09:37:37.974Z,50.14
2019-03-24T09:40:09.640Z,50.63
2019-03-24T09:42:39.036Z,50.40
2019-03-24T09:45:08.646Z,50.54
2019-03-24T09:47:38.183Z,50.82
2019-03-24T09:50:07.736Z,50.21
2019-03-24T09:52:37.145Z,50.76
2019-03-24T09:55:06.971Z,50.74
2019-03-24T09:57:36.514Z,50.74
2019-03-24T10:00:06.196Z,50.72
2019-03-24T10:02:35.791Z,50.12
2019-03-24T10:05:05.878Z,50.64
2019-03-24T10:07:35.437Z,51.11
2019-03-24T10:10:05.474Z,49.93
2019-03-24T10:12:34.902Z,51.68
2019-03-24T10:15:04.441Z,51.68
2019-03-24T10:17:34.028Z,51.26
2019-03-24T10:20:03.624Z,52.34
2019-03-24T10:22:33.058Z,51.69
2019-03-24T10:25:02.464Z,51.35
2019-03-24T10:27:32.039Z,51.84
2019-03-24T10:30:01.527Z,51.49
2019-03-24T10:32:31.047Z,51.63
2019-03-24T10:35:00.607Z,51.84
2019-03-24T10:37:30.717Z,51.64
2019-03-24T10:40:00.188Z,51.57
2019-03-24T10:42:29.656Z,50.70
2019-03-24T10:44:59.012Z,50.08
2019-03-24T10:47:28.395Z,50.27
2019-03-24T10:49:57.811Z,49.98
2019-03-24T10:52:27.350Z,49.78
2019-03-24T10:54:56.882Z,49.31
2019-03-24T10:57:26.325Z,49.03
2019-03-24T10:59:55.820Z,49.31
2019-03-24T11:02:25.356Z,49.51
2019-03-24T11:04:54.755Z,49.46
2019-03-24T11:07:24.603Z,49.05
2019-03-24T11:09:54.152Z,48.62
2019-03-24T11:12:23.576Z,48.01
2019-03-24T11:14:53.208Z,48.80
2019-03-24T11:17:22.832Z,47.76
2019-03-24T11:19:52.294Z,48.16
2019-03-24T11:22:21.902Z,47.18
2019-03-24T11:24:51.519Z,47.73
2019-03-24T11:27:20.973Z,47.82
2019-03-24T11:29:50.444Z,47.33
2019-03-24T11:32:19.929Z,47.74
2019-03-24T11:34:49.268Z,47.35
2019-03-24T11:37:18.709Z,47.14
2019-03-24T11:39:48.233Z,46.74
2019-03-24T11:42:17.736Z,46.87
2019-03-24T11:44:47.160Z,47.10
2019-03-24T11:47:26.171Z,46.76
2019-03-24T11:49:49.123Z,45.58
2019-03-24T11:52:18.827Z,45.06
2019-03-24T11:54:48.295Z,44.84
2019-03-24T11:57:17.750Z,44.27
2019-03-24T11:59:47.332Z,42.66
2019-03-24T12:02:16.811Z,42.05
2019-03-24T12:04:46.304Z,43.02
2019-03-24T12:07:15.804Z,43.87
2019-03-24T12:09:45.197Z,43.60
2019-03-24T12:12:14.699Z,43.11
2019-03-24T12:14:44.116Z,42.39
2019-03-24T12:17:13.573Z,43.42
2019-03-24T12:19:42.879Z,45.20
2019-03-24T12:22:12.283Z,45.41
2019-03-24T12:24:41.938Z,46.67
2019-03-24T12:27:11.314Z,46.93
2019-03-24T12:29:40.756Z,46.93
2019-03-24T12:32:10.105Z,46.64
2019-03-24T12:34:39.528Z,46.23
2019-03-24T12:37:08.855Z,45.84
2019-03-24T12:39:38.304Z,45.34
2019-03-24T12:42:07.852Z,45.98
2019-03-24T12:44:37.399Z,46.63
2019-03-24T12:47:07.000Z,45.72
2019-03-24T12:49:36.365Z,42.37
2019-03-24T12:52:05.789Z,41.64
2019-03-24T12:54:35.269Z,40.48
2019-03-24T12:57:04.720Z,41.33
2019-03-24T12:59:34.226Z,41.56
2019-03-24T13:02:03.998Z,42.40
2019-03-24T13:04:33.420Z,42.77
2019-03-24T13:07:02.937Z,42.99
2019-03-24T13:09:33.678Z,43.43
2019-03-24T13:12:03.251Z,42.90
2019-03-24T13:14:33.431Z,41.56
2019-03-24T13:17:03.223Z,41.26
2019-03-24T13:19:32.714Z,41.58
2019-03-24T13:22:02.391Z,41.68
2019-03-24T13:24:31.816Z,42.86
2019-03-24T13:27:01.342Z,42.47
2019-03-24T13:29:30.904Z,42.20
2019-03-24T13:32:00.311Z,43.02
2019-03-24T13:34:29.863Z,42.56
2019-03-24T13:36:59.405Z,42.65
2019-03-24T13:39:28.907Z,42.71
2019-03-24T13:41:58.390Z,42.77
2019-03-24T13:44:27.773Z,41.91
2019-03-24T13:46:57.279Z,40.93
2019-03-24T13:49:26.768Z,40.58
2019-03-24T13:51:56.239Z,41.07
2019-03-24T13:54:25.677Z,41.59
2019-03-24T13:56:55.199Z,41.97
2019-03-24T13:59:24.735Z,40.70
2019-03-24T14:01:54.183Z,40.50
2019-03-24T14:04:23.738Z,40.18
2019-03-24T14:06:53.254Z,41.53
2019-03-24T14:09:22.724Z,41.66
2019-03-24T14:11:52.233Z,42.58
2019-03-24T14:14:21.693Z,42.74
2019-03-24T14:16:52.465Z,43.12
2019-03-24T14:19:21.979Z,43.87
2019-03-24T14:21:51.554Z,43.81
2019-03-24T14:24:20.978Z,43.50
2019-03-24T14:26:50.416Z,43.51
2019-03-24T14:29:19.818Z,43.51
2019-03-24T14:31:49.387Z,42.50
2019-03-24T14:34:18.697Z,41.66
2019-03-24T14:36:48.082Z,42.75
2019-03-24T14:39:17.650Z,43.52
2019-03-24T14:41:47.189Z,44.92
2019-03-24T14:44:16.716Z,45.67
2019-03-24T14:46:46.175Z,46.90
2019-03-24T14:49:15.722Z,46.56
2019-03-24T14:51:45.253Z,46.63
2019-03-24T14:54:14.771Z,46.25
2019-03-24T14:56:44.327Z,47.28
2019-03-24T14:59:13.840Z,47.93
2019-03-24T15:01:43.395Z,47.67
2019-03-24T15:04:12.885Z,48.30
2019-03-24T15:06:42.403Z,48.61
2019-03-24T15:09:11.963Z,49.22
2019-03-24T15:11:41.469Z,48.73
2019-03-24T15:14:11.023Z,48.20
2019-03-24T15:16:40.418Z,47.05
2019-03-24T15:19:10.022Z,46.27
2019-03-24T15:21:39.594Z,46.42
2019-03-24T15:24:09.149Z,46.58
2019-03-24T15:26:38.743Z,46.78
2019-03-24T15:29:08.259Z,47.13
2019-03-24T15:31:37.774Z,48.16
2019-03-24T15:34:07.224Z,47.98
2019-03-24T15:36:36.679Z,48.09
2019-03-24T15:39:09.197Z,48.14
2019-03-24T15:41:38.761Z,48.28
2019-03-24T15:44:08.255Z,48.57
2019-03-24T15:46:37.768Z,49.15
2019-03-24T15:49:07.235Z,49.61
2019-03-24T15:51:36.721Z,49.17
2019-03-24T15:54:06.222Z,49.92
2019-03-24T15:56:35.686Z,50.20
2019-03-24T15:59:05.267Z,50.07
2019-03-24T16:01:34.791Z,49.46
2019-03-24T16:04:04.318Z,49.65
2019-03-24T16:06:33.830Z,49.71
2019-03-24T16:09:04.626Z,49.40
2019-03-24T16:11:34.087Z,49.69
2019-03-24T16:14:03.650Z,50.29
2019-03-24T16:16:33.223Z,50.37
2019-03-24T16:19:02.751Z,49.34
2019-03-24T16:21:32.376Z,48.68
2019-03-24T16:24:01.722Z,48.54
2019-03-24T16:26:31.266Z,48.19
2019-03-24T16:29:00.756Z,47.67
2019-03-24T16:31:30.306Z,48.13
2019-03-24T16:33:59.844Z,47.86
2019-03-24T16:36:29.350Z,47.73
2019-03-24T16:39:03.429Z,47.73
2019-03-24T16:41:29.926Z,48.33
2019-03-24T16:43:59.437Z,48.54
2019-03-24T16:46:29.294Z,49.09
2019-03-24T16:48:58.775Z,49.13
2019-03-24T16:51:38.141Z,49.20
2019-03-24T16:53:59.416Z,49.24
2019-03-24T16:56:28.958Z,48.43
2019-03-24T16:58:58.367Z,47.91
2019-03-24T17:01:27.835Z,48.20
2019-03-24T17:03:57.371Z,47.38
2019-03-24T17:06:26.921Z,47.55
2019-03-24T17:08:56.399Z,47.43
2019-03-24T17:11:25.864Z,47.64
2019-03-24T17:13:55.275Z,48.12
2019-03-24T17:16:24.747Z,48.35
2019-03-24T17:18:54.331Z,48.14
2019-03-24T17:21:23.781Z,48.84
2019-03-24T17:23:53.123Z,49.37
2019-03-24T17:26:23.015Z,51.14
2019-03-24T17:28:52.297Z,51.74
2019-03-24T17:31:21.853Z,53.12
2019-03-24T17:33:51.313Z,53.12
2019-03-24T17:36:20.914Z,53.74
2019-03-24T17:38:50.369Z,54.11
2019-03-24T17:41:19.850Z,54.58
2019-03-24T17:43:49.289Z,54.75
2019-03-24T17:46:19.554Z,54.86
2019-03-24T17:48:49.091Z,55.00
2019-03-24T17:51:18.563Z,55.11
2019-03-24T17:53:48.075Z,55.46
2019-03-24T17:56:17.545Z,55.24
2019-03-24T17:58:46.870Z,54.91
2019-03-24T18:01:16.418Z,54.99
2019-03-24T18:03:45.908Z,55.19
2019-03-24T18:06:15.394Z,55.30
2019-03-24T18:08:44.896Z,55.22
2019-03-24T18:11:14.398Z,55.61
2019-03-24T18:13:43.827Z,55.99
2019-03-24T18:16:13.274Z,56.09
2019-03-24T18:18:42.786Z,56.42
2019-03-24T18:21:12.240Z,56.77
2019-03-24T18:23:41.795Z,57.05
2019-03-24T18:26:11.368Z,57.39
2019-03-24T18:28:40.932Z,57.77
2019-03-24T18:31:10.984Z,58.13
2019-03-24T18:33:40.491Z,58.16
2019-03-24T18:36:09.926Z,58.55
2019-03-24T18:38:40.787Z,58.89
2019-03-24T18:41:10.305Z,59.15
2019-03-24T18:43:39.886Z,59.48
2019-03-24T18:46:09.336Z,59.54
2019-03-24T18:48:38.924Z,59.19
2019-03-24T18:51:08.429Z,58.37
2019-03-24T18:53:37.886Z,57.52
2019-03-24T18:56:07.357Z,57.85
2019-03-24T18:58:36.869Z,57.56
2019-03-24T19:01:06.353Z,57.43
2019-03-24T19:03:35.904Z,57.88
2019-03-24T19:06:05.407Z,58.39
2019-03-24T19:08:34.837Z,59.19
2019-03-24T19:11:04.295Z,59.17
2019-03-24T19:13:33.785Z,59.50
2019-03-24T19:16:03.215Z,58.19
2019-03-24T19:18:32.713Z,57.72
2019-03-24T19:21:02.335Z,57.50
2019-03-24T19:23:32.083Z,57.23
2019-03-24T19:26:01.583Z,56.92
2019-03-24T19:28:31.054Z,56.62
2019-03-24T19:31:00.485Z,56.60
2019-03-24T19:33:30.322Z,56.58
2019-03-24T19:36:00.891Z,56.60
2019-03-24T19:38:33.663Z,57.21
2019-03-24T19:41:03.232Z,57.37
2019-03-24T19:43:32.652Z,58.08
2019-03-24T19:46:02.056Z,58.15
2019-03-24T19:48:31.606Z,56.76
2019-03-24T19:51:01.007Z,56.73
2019-03-24T19:53:30.475Z,56.60
2019-03-24T19:55:59.869Z,56.32
2019-03-24T19:58:29.423Z,56.13
2019-03-24T20:00:58.962Z,55.93
2019-03-24T20:03:28.357Z,55.66
2019-03-24T20:05:57.942Z,55.60
2019-03-24T20:08:27.497Z,55.16
2019-03-24T20:10:56.971Z,55.20
2019-03-24T20:13:26.363Z,54.31
2019-03-24T20:15:55.915Z,54.26
2019-03-24T20:18:25.385Z,53.15
2019-03-24T20:20:54.878Z,53.36
2019-03-24T20:23:24.277Z,52.56
2019-03-24T20:25:53.791Z,52.45
2019-03-24T20:28:23.358Z,52.36
2019-03-24T20:30:53.368Z,52.25
2019-03-24T20:33:22.845Z,51.87
2019-03-24T20:35:52.227Z,52.40
2019-03-24T20:38:21.965Z,52.49
2019-03-24T20:40:51.376Z,52.58
2019-03-24T20:43:20.830Z,53.55
2019-03-24T20:45:50.288Z,54.12
2019-03-24T20:48:19.870Z,53.96
2019-03-24T20:50:49.403Z,53.55
2019-03-24T20:53:18.836Z,53.29
2019-03-24T20:55:48.417Z,53.42
2019-03-24T20:58:17.839Z,53.82
2019-03-24T21:00:47.500Z,53.90
2019-03-24T21:03:16.858Z,54.40
2019-03-24T21:05:46.414Z,54.76
2019-03-24T21:08:16.067Z,54.17
2019-03-24T21:10:45.599Z,54.72
2019-03-24T21:13:15.032Z,55.19
2019-03-24T21:15:44.536Z,55.20
2019-03-24T21:18:13.942Z,55.00
2019-03-24T21:20:43.322Z,55.43
2019-03-24T21:23:12.689Z,55.54
2019-03-24T21:25:42.152Z,55.40
2019-03-24T21:28:11.619Z,55.71
2019-03-24T21:30:41.525Z,56.22
2019-03-24T21:33:11.077Z,56.19
2019-03-24T21:35:40.444Z,56.63
2019-03-24T21:38:10.145Z,56.90
2019-03-24T21:40:39.706Z,56.90
2019-03-24T21:43:09.285Z,57.03
2019-03-24T21:45:38.827Z,57.84
2019-03-24T21:48:08.483Z,57.21
2019-03-24T21:50:37.812Z,57.32
2019-03-24T21:53:07.476Z,57.87
2019-03-24T21:55:37.080Z,57.76
2019-03-24T21:58:06.770Z,57.30
2019-03-24T22:00:37.418Z,56.90
2019-03-24T22:03:08.027Z,56.73
2019-03-24T22:05:37.947Z,56.63
2019-03-24T22:08:07.581Z,56.28
2019-03-24T22:10:37.202Z,55.80
2019-03-24T22:13:06.851Z,55.57
2019-03-24T22:15:36.379Z,55.68
2019-03-24T22:18:06.573Z,55.69
2019-03-24T22:20:36.053Z,54.49
2019-03-24T22:23:05.605Z,53.27
2019-03-24T22:25:36.252Z,53.84
2019-03-24T22:28:05.873Z,53.67
2019-03-24T22:30:35.363Z,51.58
2019-03-24T22:33:04.809Z,49.92
2019-03-24T22:35:34.349Z,49.51
2019-03-24T22:38:03.832Z,49.39
2019-03-24T22:40:33.374Z,48.20
2019-03-24T22:43:02.803Z,48.35
2019-03-24T22:45:32.430Z,48.30
2019-03-24T22:48:01.970Z,47.67
2019-03-24T22:50:31.492Z,47.97
2019-03-24T22:53:00.875Z,46.95
2019-03-24T22:55:30.391Z,46.81
2019-03-24T22:57:59.879Z,47.20
2019-03-24T23:00:51.333Z,46.97
2019-03-24T23:03:20.998Z,47.27
2019-03-24T23:05:50.808Z,47.09
2019-03-24T23:08:20.320Z,47.22
2019-03-24T23:10:49.872Z,47.00
2019-03-24T23:13:19.428Z,47.08
2019-03-24T23:15:48.926Z,47.38
2019-03-24T23:18:18.407Z,47.60
2019-03-24T23:20:47.881Z,47.76
2019-03-24T23:23:17.335Z,47.77
2019-03-24T23:25:46.786Z,47.96
2019-03-24T23:28:16.194Z,48.06
2019-03-24T23:30:45.722Z,48.16
2019-03-24T23:33:16.052Z,48.31
2019-03-24T23:35:45.549Z,48.58
2019-03-24T23:38:15.027Z,48.32
2019-03-24T23:40:44.486Z,48.20
2019-03-24T23:43:13.963Z,48.92
2019-03-24T23:45:43.484Z,49.52
2019-03-24T23:48:13.021Z,49.31
2019-03-24T23:50:42.542Z,49.77
2019-03-24T23:53:12.001Z,50.15
2019-03-24T23:55:41.513Z,50.28
2019-03-24T23:58:10.874Z,50.64
